Terminal Aerodrome Forecast
Issued by NWS

Current Version | Previous Version | Text Only | Print | Product List | Glossary On
Versions: 1 2 3 4 5 6 7 8 9 10 11 12 13 14 15 16 17 18 19 20
000
FTUS43 KMQT 290215 AAB
TAFCMX
TAF AMD
KCMX 290215Z 2902/2924 14006KT P6SM BKN100 WS007/21035KT
     FM291300 20008KT P6SM -SHRA OVC090
     FM291600 20005KT P6SM -SHRA OVC028
     FM291800 20004KT 6SM -SHRA BR OVC012
     FM292000 29007KT 6SM -SHRA BR OVC010=

USA.gov is the U.S. government's official web portal to all federal, state and local government web resources and services.